createdAt,value
2017-11-18T00:00:48.827Z,230.83
2017-11-18T00:03:18.060Z,151.83
2017-11-18T00:05:48.012Z,78.73
2017-11-18T00:08:16.549Z,86.77
2017-11-18T00:10:48.603Z,65.23
2017-11-18T00:13:24.664Z,70.50
2017-11-18T00:15:54.205Z,297.70
2017-11-18T00:18:23.226Z,232.50
2017-11-18T00:20:55.389Z,456.63
2017-11-18T00:23:31.248Z,130.97
2017-11-18T00:26:01.074Z,347.60
2017-11-18T00:28:33.047Z,239.17
2017-11-18T00:31:02.362Z,80.40
2017-11-18T00:33:31.456Z,377.93
2017-11-18T00:35:59.691Z,240.23
2017-11-18T00:38:29.023Z,408.00
2017-11-18T00:40:58.500Z,185.33
2017-11-18T00:43:27.364Z,246.20
2017-11-18T00:45:57.730Z,48.43
2017-11-18T00:48:28.131Z,152.83
2017-11-18T00:50:56.409Z,199.50
2017-11-18T00:53:24.696Z,335.37
2017-11-18T00:55:54.116Z,359.63
2017-11-18T00:58:24.555Z,327.50
2017-11-18T01:00:56.204Z,145.80
2017-11-18T01:03:27.314Z,177.03
2017-11-18T01:06:06.163Z,383.10
2017-11-18T01:08:35.359Z,309.67
2017-11-18T01:11:05.496Z,132.53
2017-11-18T01:13:34.031Z,239.40
2017-11-18T01:16:09.861Z,103.47
2017-11-18T01:18:39.512Z,98.40
2017-11-18T01:21:11.124Z,227.83
2017-11-18T01:23:39.910Z,140.23
2017-11-18T01:26:09.124Z,233.40
2017-11-18T01:28:38.022Z,109.27
2017-11-18T01:31:12.111Z,168.60
2017-11-18T01:33:41.430Z,39.53
2017-11-18T01:36:15.128Z,112.00
2017-11-18T01:38:45.701Z,41.80
2017-11-18T01:41:15.197Z,35.07
2017-11-18T01:43:52.157Z,48.20
2017-11-18T01:46:23.944Z,49.30
2017-11-18T01:48:54.357Z,54.03
2017-11-18T01:51:23.516Z,35.27
2017-11-18T01:53:52.195Z,67.33
2017-11-18T01:56:20.766Z,253.53
2017-11-18T01:58:50.193Z,236.73
2017-11-18T02:01:19.537Z,73.23
2017-11-18T02:03:50.846Z,158.10
2017-11-18T02:06:20.492Z,99.40
2017-11-18T02:08:50.387Z,41.87
2017-11-18T02:11:20.121Z,28.30
2017-11-18T02:13:49.327Z,48.53
2017-11-18T02:16:18.247Z,51.77
2017-11-18T02:18:46.670Z,145.40
2017-11-18T02:21:16.296Z,269.23
2017-11-18T02:23:45.748Z,86.73
2017-11-18T02:26:15.416Z,28.27
2017-11-18T02:28:43.988Z,38.27
2017-11-18T02:31:13.321Z,38.30
2017-11-18T02:33:42.303Z,28.00
2017-11-18T02:36:13.537Z,26.63
2017-11-18T02:38:49.306Z,81.13
2017-11-18T02:41:18.472Z,30.47
2017-11-18T02:43:48.212Z,27.20
2017-11-18T02:46:16.581Z,32.13
2017-11-18T02:48:45.329Z,29.30
2017-11-18T02:51:15.072Z,37.00
2017-11-18T02:53:44.804Z,28.93
2017-11-18T02:56:13.323Z,30.50
2017-11-18T02:58:42.467Z,41.10
2017-11-18T03:01:21.508Z,38.50
2017-11-18T03:03:51.296Z,28.70
2017-11-18T03:06:26.673Z,31.10
2017-11-18T03:08:55.435Z,38.43
2017-11-18T03:11:23.845Z,38.10
2017-11-18T03:13:52.804Z,27.07
2017-11-18T03:16:25.856Z,60.50
2017-11-18T03:18:56.099Z,54.53
2017-11-18T03:21:25.057Z,34.33
2017-11-18T03:23:53.672Z,62.30
2017-11-18T03:26:25.213Z,26.37
2017-11-18T03:28:54.121Z,74.00
2017-11-18T03:31:23.043Z,47.20
2017-11-18T03:33:51.981Z,179.20
2017-11-18T03:36:32.250Z,152.03
2017-11-18T03:39:01.868Z,27.20
2017-11-18T03:41:31.843Z,39.17
2017-11-18T03:44:04.080Z,116.50
2017-11-18T03:46:32.899Z,26.77
2017-11-18T03:49:04.346Z,23.20
2017-11-18T03:51:34.121Z,58.60
2017-11-18T03:54:03.458Z,29.43
2017-11-18T03:56:33.305Z,27.70
2017-11-18T03:59:04.655Z,67.87
2017-11-18T04:01:35.671Z,98.83
2017-11-18T04:04:05.254Z,56.60
2017-11-18T04:06:35.254Z,161.00
2017-11-18T04:09:04.163Z,142.10
2017-11-18T04:11:39.652Z,103.27
2017-11-18T04:14:11.909Z,26.67
2017-11-18T04:16:41.359Z,21.77
2017-11-18T04:19:10.356Z,23.47
2017-11-18T04:21:39.486Z,57.63
2017-11-18T04:24:08.510Z,52.70
2017-11-18T04:26:41.654Z,34.23
2017-11-18T04:29:24.416Z,22.83
2017-11-18T04:31:56.051Z,38.73
2017-11-18T04:34:25.382Z,53.47
2017-11-18T04:36:54.179Z,22.60
2017-11-18T04:39:23.655Z,62.53
2017-11-18T04:42:03.750Z,21.57
2017-11-18T04:44:34.049Z,25.50
2017-11-18T04:47:03.885Z,21.20
2017-11-18T04:49:33.380Z,28.47
2017-11-18T04:52:03.355Z,24.20
2017-11-18T04:54:33.721Z,23.13
2017-11-18T04:57:02.970Z,21.43
2017-11-18T04:59:35.524Z,22.20
2017-11-18T05:02:05.109Z,22.03
2017-11-18T05:04:36.341Z,23.37
2017-11-18T05:07:11.844Z,19.80
2017-11-18T05:09:40.358Z,23.20
2017-11-18T05:12:08.963Z,18.20
2017-11-18T05:14:38.431Z,26.07
2017-11-18T05:17:07.223Z,21.70
2017-11-18T05:19:36.115Z,44.47
2017-11-18T05:22:10.515Z,93.37
2017-11-18T05:24:41.195Z,23.93
2017-11-18T05:27:11.554Z,23.47
2017-11-18T05:29:40.864Z,88.30
2017-11-18T05:32:09.781Z,26.30
2017-11-18T05:34:39.274Z,30.43
2017-11-18T05:37:09.659Z,115.90
2017-11-18T05:39:38.882Z,21.47
2017-11-18T05:42:10.451Z,23.03
2017-11-18T05:44:39.764Z,28.23
2017-11-18T05:47:08.282Z,28.23
2017-11-18T05:49:36.703Z,25.33
2017-11-18T05:52:05.799Z,21.43
2017-11-18T05:54:35.413Z,22.70
2017-11-18T05:57:05.582Z,23.43
2017-11-18T05:59:34.453Z,46.33
2017-11-18T06:02:04.038Z,40.57
2017-11-18T06:04:32.553Z,25.27
2017-11-18T06:07:01.305Z,25.43
2017-11-18T06:09:29.861Z,24.10
2017-11-18T06:11:59.440Z,16.90
2017-11-18T06:14:30.027Z,24.13
2017-11-18T06:17:08.994Z,24.90
2017-11-18T06:19:38.505Z,22.83
2017-11-18T06:22:07.940Z,25.90
2017-11-18T06:24:37.109Z,25.77
2017-11-18T06:27:09.575Z,22.70
2017-11-18T06:29:39.803Z,24.77
2017-11-18T06:32:09.381Z,23.57
2017-11-18T06:34:37.678Z,22.83
2017-11-18T06:37:05.985Z,19.30
2017-11-18T06:39:34.512Z,21.20
2017-11-18T06:42:03.051Z,21.90
2017-11-18T06:44:31.362Z,23.50
2017-11-18T06:47:02.586Z,23.83
2017-11-18T06:49:31.611Z,25.70
2017-11-18T06:51:59.876Z,27.33
2017-11-18T06:54:28.316Z,22.67
2017-11-18T06:56:56.568Z,25.40
2017-11-18T06:59:28.111Z,25.70
2017-11-18T07:01:59.216Z,39.70
2017-11-18T07:04:27.869Z,33.73
2017-11-18T07:06:57.241Z,31.33
2017-11-18T07:09:25.577Z,23.83
2017-11-18T07:11:55.565Z,26.80
2017-11-18T07:14:24.761Z,26.53
2017-11-18T07:16:53.032Z,23.30
2017-11-18T07:19:21.272Z,25.80
2017-11-18T07:21:49.574Z,24.90
2017-11-18T07:24:18.911Z,26.40
2017-11-18T07:26:48.053Z,24.00
2017-11-18T07:29:20.229Z,22.13
2017-11-18T07:31:50.227Z,29.57
2017-11-18T07:34:20.549Z,33.57
2017-11-18T07:36:48.911Z,26.27
2017-11-18T07:39:17.328Z,23.87
2017-11-18T07:41:46.572Z,21.53
2017-11-18T07:44:15.689Z,22.60
2017-11-18T07:46:44.009Z,25.80
2017-11-18T07:49:12.411Z,23.37
2017-11-18T07:51:41.598Z,24.97
2017-11-18T07:54:10.662Z,18.07
2017-11-18T07:56:39.377Z,27.50
2017-11-18T07:59:09.458Z,23.77
2017-11-18T08:01:38.708Z,31.73
2017-11-18T08:04:10.700Z,33.40
2017-11-18T08:06:40.162Z,23.90
2017-11-18T08:09:13.527Z,29.50
2017-11-18T08:11:42.212Z,38.53
2017-11-18T08:14:11.291Z,32.10
2017-11-18T08:16:42.952Z,40.97
2017-11-18T08:19:19.198Z,27.53
2017-11-18T08:21:48.458Z,27.57
2017-11-18T08:24:18.119Z,23.13
2017-11-18T08:26:46.482Z,24.17
2017-11-18T08:29:18.115Z,21.80
2017-11-18T08:31:51.233Z,26.47
2017-11-18T08:34:20.815Z,23.43
2017-11-18T08:36:50.137Z,25.50
2017-11-18T08:39:18.420Z,30.70
2017-11-18T08:41:48.892Z,28.03
2017-11-18T08:44:18.106Z,27.60
2017-11-18T08:46:47.137Z,25.83
2017-11-18T08:49:16.880Z,27.60
2017-11-18T08:51:47.623Z,23.90
2017-11-18T08:54:17.438Z,24.20
2017-11-18T08:56:46.328Z,24.20
2017-11-18T08:59:16.289Z,21.87
2017-11-18T09:01:45.014Z,29.73
2017-11-18T09:04:20.469Z,32.83
2017-11-18T09:06:50.898Z,22.40
2017-11-18T09:09:20.190Z,33.87
2017-11-18T09:11:48.491Z,31.10
2017-11-18T09:14:18.797Z,26.67
2017-11-18T09:16:50.934Z,31.77
2017-11-18T09:19:20.587Z,40.90
2017-11-18T09:21:52.668Z,30.23
2017-11-18T09:24:21.422Z,31.13
2017-11-18T09:26:50.097Z,29.60
2017-11-18T09:29:19.254Z,20.93
2017-11-18T09:31:48.223Z,18.57
2017-11-18T09:34:17.761Z,23.80
2017-11-18T09:36:46.373Z,21.03
2017-11-18T09:39:15.910Z,26.57
2017-11-18T09:41:47.076Z,20.17
2017-11-18T09:44:16.355Z,28.37
2017-11-18T09:46:45.928Z,25.17
2017-11-18T09:49:15.544Z,17.73
2017-11-18T09:51:44.148Z,22.63
2017-11-18T09:54:19.768Z,19.60
2017-11-18T09:56:49.136Z,26.77
2017-11-18T09:59:18.589Z,22.90
2017-11-18T10:01:47.963Z,21.37
2017-11-18T10:04:23.821Z,17.57
2017-11-18T10:06:56.436Z,20.27
2017-11-18T10:09:28.797Z,28.83
2017-11-18T10:12:00.627Z,26.33
2017-11-18T10:14:29.505Z,25.00
2017-11-18T10:16:59.444Z,28.80
2017-11-18T10:19:32.571Z,21.90
2017-11-18T10:22:02.089Z,19.97
2017-11-18T10:24:33.581Z,17.87
2017-11-18T10:27:02.490Z,27.73
2017-11-18T10:29:32.857Z,30.97
2017-11-18T10:32:04.592Z,20.20
2017-11-18T10:34:34.584Z,20.13
2017-11-18T10:37:04.089Z,31.77
2017-11-18T10:39:34.718Z,24.03
2017-11-18T10:42:04.063Z,33.23
2017-11-18T10:44:32.726Z,23.67
2017-11-18T10:47:02.333Z,27.67
2017-11-18T10:49:31.904Z,34.40
2017-11-18T10:52:01.305Z,25.40
2017-11-18T10:54:30.981Z,33.10
2017-11-18T10:57:03.632Z,24.77
2017-11-18T10:59:33.940Z,27.20
2017-11-18T11:02:04.578Z,39.03
2017-11-18T11:04:37.128Z,23.90
2017-11-18T11:07:05.685Z,27.13
2017-11-18T11:09:35.420Z,19.20
2017-11-18T11:12:03.783Z,26.50
2017-11-18T11:14:33.181Z,21.23
2017-11-18T11:17:04.658Z,30.53
2017-11-18T11:19:33.932Z,27.70
2017-11-18T11:22:03.647Z,18.57
2017-11-18T11:24:31.898Z,20.83
2017-11-18T11:27:03.352Z,25.30
2017-11-18T11:29:32.012Z,24.53
2017-11-18T11:32:01.391Z,26.57
2017-11-18T11:34:31.612Z,27.33
2017-11-18T11:37:01.408Z,21.63
2017-11-18T11:39:30.516Z,20.60
2017-11-18T11:41:59.612Z,18.50
2017-11-18T11:44:31.127Z,29.30
2017-11-18T11:46:59.600Z,19.20
2017-11-18T11:49:30.267Z,22.13
2017-11-18T11:51:58.835Z,30.00
2017-11-18T11:54:28.264Z,30.30
2017-11-18T11:56:57.455Z,19.80
2017-11-18T11:59:25.968Z,22.90
2017-11-18T12:01:54.540Z,20.40
2017-11-18T12:04:23.838Z,21.03
2017-11-18T12:06:52.923Z,20.00
2017-11-18T12:09:22.853Z,24.10
2017-11-18T12:11:52.674Z,20.63
2017-11-18T12:14:22.252Z,18.40
2017-11-18T12:16:51.012Z,18.57
2017-11-18T12:19:23.085Z,13.70
2017-11-18T12:21:51.468Z,21.37
2017-11-18T12:24:22.615Z,23.13
2017-11-18T12:26:51.546Z,15.20
2017-11-18T12:29:20.117Z,21.57
2017-11-18T12:31:48.461Z,15.67
2017-11-18T12:34:17.162Z,17.30
2017-11-18T12:36:46.569Z,20.63
2017-11-18T12:39:16.501Z,15.40
2017-11-18T12:41:45.597Z,21.40
2017-11-18T12:44:15.177Z,20.93
2017-11-18T12:46:44.585Z,19.17
2017-11-18T12:49:16.729Z,23.53
2017-11-18T12:51:45.023Z,21.37
2017-11-18T12:54:15.201Z,23.53
2017-11-18T12:56:43.675Z,20.10
2017-11-18T12:59:18.511Z,16.87
2017-11-18T13:01:47.114Z,30.00
2017-11-18T13:04:16.372Z,16.93
2017-11-18T13:06:45.205Z,13.83
2017-11-18T13:09:14.774Z,20.30
2017-11-18T13:11:53.504Z,16.43
2017-11-18T13:14:25.788Z,21.27
2017-11-18T13:16:58.519Z,20.53
2017-11-18T13:19:30.105Z,17.90
2017-11-18T13:21:59.868Z,23.70
2017-11-18T13:24:29.543Z,18.10
2017-11-18T13:26:58.032Z,24.07
2017-11-18T13:29:26.378Z,19.90
2017-11-18T13:31:54.954Z,19.67
2017-11-18T13:34:23.740Z,22.97
2017-11-18T13:36:54.025Z,16.93
2017-11-18T13:39:24.492Z,21.27
2017-11-18T13:41:52.937Z,17.77
2017-11-18T13:44:22.577Z,24.37
2017-11-18T13:46:50.920Z,28.63
2017-11-18T13:49:20.404Z,21.07
2017-11-18T13:51:48.927Z,23.57
2017-11-18T13:54:17.538Z,21.93
2017-11-18T13:56:45.873Z,17.30
2017-11-18T13:59:16.032Z,23.10
2017-11-18T14:01:46.275Z,15.77
2017-11-18T14:04:16.329Z,20.20
2017-11-18T14:06:46.003Z,23.63
2017-11-18T14:09:24.805Z,19.70
2017-11-18T14:11:53.785Z,22.77
2017-11-18T14:14:24.322Z,19.60
2017-11-18T14:16:54.099Z,18.10
2017-11-18T14:19:24.168Z,19.07
2017-11-18T14:21:53.951Z,22.50
2017-11-18T14:24:22.886Z,25.50
2017-11-18T14:26:51.192Z,23.77
2017-11-18T14:29:20.464Z,24.80
2017-11-18T14:31:49.000Z,22.10
2017-11-18T14:34:18.090Z,26.30
2017-11-18T14:36:49.762Z,22.47
2017-11-18T14:39:18.303Z,21.70
2017-11-18T14:41:47.484Z,26.30
2017-11-18T14:44:16.733Z,26.57
2017-11-18T14:46:47.104Z,22.03
2017-11-18T14:49:15.698Z,24.80
2017-11-18T14:51:45.639Z,19.50
2017-11-18T14:54:17.124Z,20.87
2017-11-18T14:56:45.384Z,21.90
2017-11-18T14:59:13.744Z,20.93
2017-11-18T15:01:42.270Z,18.90
2017-11-18T15:04:10.910Z,20.33
2017-11-18T15:06:40.899Z,17.70
2017-11-18T15:09:10.396Z,22.13
2017-11-18T15:11:39.080Z,23.10
2017-11-18T15:14:08.035Z,23.83
2017-11-18T15:16:43.020Z,26.70
2017-11-18T15:19:17.482Z,24.03
2017-11-18T15:21:51.822Z,22.80
2017-11-18T15:24:26.527Z,23.60
2017-11-18T15:27:01.306Z,25.27
2017-11-18T15:42:58.614Z,24.20
2017-11-18T15:45:43.806Z,24.87
2017-11-18T15:48:18.362Z,27.83
2017-11-18T15:50:52.205Z,20.10
2017-11-18T15:53:26.205Z,22.93
2017-11-18T15:56:01.411Z,23.73
2017-11-18T15:58:37.522Z,24.60
2017-11-18T16:01:11.689Z,22.97
2017-11-18T16:03:43.213Z,24.20
2017-11-18T16:06:11.540Z,15.37
2017-11-18T16:08:40.768Z,22.97
2017-11-18T16:11:10.619Z,20.30
2017-11-18T16:13:39.698Z,22.80
2017-11-18T16:16:08.079Z,28.47
2017-11-18T16:18:38.859Z,35.97
2017-11-18T16:21:08.981Z,48.20
2017-11-18T16:23:37.943Z,39.07
2017-11-18T16:26:08.308Z,38.03
2017-11-18T16:28:40.059Z,25.37
2017-11-18T16:31:08.488Z,34.17
2017-11-18T16:33:38.555Z,34.00
2017-11-18T16:36:06.923Z,38.70
2017-11-18T16:38:35.419Z,22.60
2017-11-18T16:41:06.807Z,40.93
2017-11-18T16:43:39.092Z,26.00
2017-11-18T16:46:07.893Z,27.57
2017-11-18T16:48:37.319Z,25.03
2017-11-18T16:51:06.644Z,22.50
2017-11-18T16:53:35.192Z,30.40
2017-11-18T16:56:03.653Z,21.43
2017-11-18T16:58:32.311Z,29.00
2017-11-18T17:01:01.481Z,22.40
2017-11-18T17:03:29.977Z,33.00
2017-11-18T17:05:58.701Z,37.87
2017-11-18T17:08:27.610Z,22.40
2017-11-18T17:10:55.932Z,30.93
2017-11-18T17:13:24.940Z,32.60
2017-11-18T17:15:54.621Z,26.90
2017-11-18T17:18:23.294Z,24.93
2017-11-18T17:20:51.722Z,26.80
2017-11-18T17:23:21.149Z,29.00
2017-11-18T17:25:50.350Z,24.40
2017-11-18T17:28:18.992Z,32.53
2017-11-18T17:30:48.519Z,25.67
2017-11-18T17:33:20.976Z,28.50
2017-11-18T17:35:49.566Z,31.43
2017-11-18T17:38:18.758Z,26.63
2017-11-18T17:40:47.438Z,26.83
2017-11-18T17:43:16.042Z,28.83
2017-11-18T17:45:44.670Z,27.90
2017-11-18T17:48:13.296Z,23.73
2017-11-18T17:50:41.601Z,25.47
2017-11-18T17:53:10.352Z,35.43
2017-11-18T17:55:39.546Z,26.73
2017-11-18T17:58:08.138Z,29.50
2017-11-18T18:00:45.160Z,31.33
2017-11-18T18:03:13.830Z,28.33
2017-11-18T18:05:43.492Z,31.57
2017-11-18T18:08:14.652Z,35.80
2017-11-18T18:10:44.382Z,25.90
2017-11-18T18:13:12.663Z,31.93
2017-11-18T18:15:41.256Z,29.37
2017-11-18T18:18:09.814Z,31.27
2017-11-18T18:20:38.350Z,30.40
2017-11-18T18:23:06.608Z,25.90
2017-11-18T18:25:38.897Z,29.70
2017-11-18T18:28:08.764Z,28.87
2017-11-18T18:30:40.481Z,25.43
2017-11-18T18:33:09.112Z,31.90
2017-11-18T18:35:38.475Z,31.70
2017-11-18T18:38:06.967Z,28.13
2017-11-18T18:40:36.578Z,29.30
2017-11-18T18:43:06.060Z,27.83
2017-11-18T18:45:36.418Z,25.20
2017-11-18T18:48:07.209Z,26.40
2017-11-18T18:50:36.035Z,28.57
2017-11-18T18:53:11.464Z,24.80
2017-11-18T18:55:40.281Z,20.17
2017-11-18T18:58:08.548Z,23.50
2017-11-18T19:00:38.206Z,24.00
2017-11-18T19:03:06.598Z,22.00
2017-11-18T19:05:35.849Z,23.93
2017-11-18T19:08:04.956Z,22.73
2017-11-18T19:10:36.904Z,24.07
2017-11-18T19:13:06.022Z,22.97
2017-11-18T19:15:34.711Z,23.77
2017-11-18T19:18:03.344Z,22.47
2017-11-18T19:20:32.795Z,25.63
2017-11-18T19:23:09.128Z,24.93
2017-11-18T19:25:38.864Z,25.70
2017-11-18T19:28:08.885Z,29.80
2017-11-18T19:30:38.820Z,28.00
2017-11-18T19:33:07.068Z,31.67
2017-11-18T19:35:36.342Z,27.83
2017-11-18T19:38:05.831Z,27.37
2017-11-18T19:40:36.243Z,30.27
2017-11-18T19:43:04.775Z,31.97
2017-11-18T19:45:33.269Z,25.53
2017-11-18T19:48:01.546Z,29.40
2017-11-18T19:50:31.543Z,29.67
2017-11-18T19:53:01.344Z,26.30
2017-11-18T19:55:33.615Z,31.03
2017-11-18T19:58:02.786Z,16.23
2017-11-18T20:00:32.715Z,19.33
2017-11-18T20:03:02.265Z,19.67
2017-11-18T20:05:31.406Z,16.03
2017-11-18T20:08:01.477Z,16.83
2017-11-18T20:10:30.948Z,18.53
2017-11-18T20:13:00.088Z,13.80
2017-11-18T20:15:29.387Z,15.77
2017-11-18T20:17:59.130Z,16.00
2017-11-18T20:20:32.627Z,16.07
2017-11-18T20:23:05.670Z,18.20
2017-11-18T20:25:34.367Z,17.43
2017-11-18T20:28:03.825Z,16.47
2017-11-18T20:30:32.686Z,16.47
2017-11-18T20:33:04.286Z,16.57
2017-11-18T20:35:33.751Z,16.20
2017-11-18T20:38:03.357Z,13.63
2017-11-18T20:40:31.831Z,20.60
2017-11-18T20:43:03.475Z,21.87
2017-11-18T20:45:32.805Z,15.13
2017-11-18T20:48:03.074Z,17.40
2017-11-18T20:50:32.208Z,19.70
2017-11-18T20:53:07.742Z,13.93
2017-11-18T20:55:36.498Z,14.03
2017-11-18T20:58:04.968Z,18.50
2017-11-18T21:00:33.567Z,18.23
2017-11-18T21:06:07.041Z,13.00
2017-11-18T21:08:35.594Z,14.40
2017-11-18T21:11:03.882Z,14.27
2017-11-18T21:13:35.832Z,14.67
2017-11-18T21:16:04.303Z,13.53
2017-11-18T21:18:34.491Z,14.23
2017-11-18T21:21:04.707Z,15.80
2017-11-18T21:23:33.289Z,15.07
2017-11-18T21:26:03.847Z,13.70
2017-11-18T21:28:32.148Z,17.47
2017-11-18T21:31:01.372Z,17.67
2017-11-18T21:33:29.802Z,16.03
2017-11-18T21:35:58.125Z,17.13
2017-11-18T21:38:27.008Z,16.70
2017-11-18T21:40:55.299Z,17.77
2017-11-18T21:43:24.045Z,16.10
2017-11-18T21:45:54.060Z,22.50
2017-11-18T21:48:23.536Z,15.43
2017-11-18T21:50:52.115Z,18.17
2017-11-18T21:53:25.556Z,17.67
2017-11-18T21:55:54.952Z,19.13
2017-11-18T21:58:24.204Z,18.50
2017-11-18T22:00:53.053Z,17.00
2017-11-18T22:03:22.267Z,15.80
2017-11-18T22:05:51.840Z,19.43
2017-11-18T22:08:21.591Z,18.03
2017-11-18T22:10:50.406Z,18.27
2017-11-18T22:13:19.997Z,19.77
2017-11-18T22:15:48.459Z,21.27
2017-11-18T22:18:19.877Z,18.80
2017-11-18T22:20:48.443Z,21.63
2017-11-18T22:23:17.555Z,18.40
2017-11-18T22:25:47.115Z,21.60
2017-11-18T22:28:17.501Z,15.63
2017-11-18T22:30:46.500Z,17.37
2017-11-18T22:33:16.944Z,19.17
2017-11-18T22:35:45.477Z,18.97
2017-11-18T22:38:13.856Z,15.00
2017-11-18T22:40:42.402Z,18.53
2017-11-18T22:43:13.774Z,15.27
2017-11-18T22:45:42.233Z,17.90
2017-11-18T22:48:12.087Z,15.17
2017-11-18T22:50:40.903Z,15.60
2017-11-18T22:53:11.259Z,20.30
2017-11-18T22:55:40.459Z,15.40
2017-11-18T22:58:10.578Z,13.93
2017-11-18T23:00:42.949Z,14.20
2017-11-18T23:03:11.913Z,18.53
2017-11-18T23:05:42.260Z,15.47
2017-11-18T23:08:11.155Z,17.33
2017-11-18T23:10:41.605Z,15.70
2017-11-18T23:13:10.359Z,16.17
2017-11-18T23:15:39.754Z,15.10
2017-11-18T23:18:08.429Z,16.33
2017-11-18T23:20:37.776Z,20.97
2017-11-18T23:23:06.299Z,15.90
2017-11-18T23:25:35.361Z,16.30
2017-11-18T23:28:05.179Z,15.83
2017-11-18T23:30:33.794Z,20.77
2017-11-18T23:33:03.409Z,15.27
2017-11-18T23:35:32.934Z,13.33
2017-11-18T23:38:04.155Z,16.53
2017-11-18T23:40:34.448Z,18.50
2017-11-18T23:43:03.154Z,18.87
2017-11-18T23:45:32.655Z,13.27
2017-11-18T23:48:02.736Z,12.97
2017-11-18T23:50:31.459Z,15.00
2017-11-18T23:53:00.705Z,15.33
2017-11-18T23:55:29.554Z,17.87
2017-11-18T23:57:59.290Z,15.97
